sensor_id;sensor_type;location;lat;lon;timestamp;P1;durP1;ratioP1;P2;durP2;ratioP2
46266;SDS011;31998;48.798;15.066;2024-03-08T00:00:12;65.47;;;32.97;;
46266;SDS011;31998;48.798;15.066;2024-03-08T00:02:38;62.20;;;33.47;;
46266;SDS011;31998;48.798;15.066;2024-03-08T00:05:04;73.23;;;35.57;;
46266;SDS011;31998;48.798;15.066;2024-03-08T00:07:30;65.27;;;34.13;;
46266;SDS011;31998;48.798;15.066;2024-03-08T00:09:55;74.10;;;33.20;;
46266;SDS011;31998;48.798;15.066;2024-03-08T00:12:20;54.67;;;31.20;;
46266;SDS011;31998;48.798;15.066;2024-03-08T00:14:45;59.70;;;32.20;;
46266;SDS011;31998;48.798;15.066;2024-03-08T00:17:11;62.80;;;33.20;;
46266;SDS011;31998;48.798;15.066;2024-03-08T00:19:36;67.33;;;33.30;;
46266;SDS011;31998;48.798;15.066;2024-03-08T00:22:01;65.67;;;33.57;;
46266;SDS011;31998;48.798;15.066;2024-03-08T00:24:27;66.70;;;33.80;;
46266;SDS011;31998;48.798;15.066;2024-03-08T00:26:53;62.67;;;33.33;;
46266;SDS011;31998;48.798;15.066;2024-03-08T00:29:19;70.53;;;33.60;;
46266;SDS011;31998;48.798;15.066;2024-03-08T00:31:44;59.57;;;31.53;;
46266;SDS011;31998;48.798;15.066;2024-03-08T00:34:09;66.00;;;33.43;;
46266;SDS011;31998;48.798;15.066;2024-03-08T00:36:36;57.23;;;32.80;;
46266;SDS011;31998;48.798;15.066;2024-03-08T00:39:02;69.23;;;33.53;;
46266;SDS011;31998;48.798;15.066;2024-03-08T00:41:28;58.90;;;31.53;;
46266;SDS011;31998;48.798;15.066;2024-03-08T00:43:53;52.23;;;29.60;;
46266;SDS011;31998;48.798;15.066;2024-03-08T00:46:18;48.17;;;28.67;;
46266;SDS011;31998;48.798;15.066;2024-03-08T00:48:43;55.83;;;32.00;;
46266;SDS011;31998;48.798;15.066;2024-03-08T00:51:09;56.40;;;31.30;;
46266;SDS011;31998;48.798;15.066;2024-03-08T00:53:34;59.53;;;31.20;;
46266;SDS011;31998;48.798;15.066;2024-03-08T00:55:59;48.80;;;29.90;;
46266;SDS011;31998;48.798;15.066;2024-03-08T00:58:24;62.20;;;31.13;;
46266;SDS011;31998;48.798;15.066;2024-03-08T01:00:50;61.47;;;30.97;;
46266;SDS011;31998;48.798;15.066;2024-03-08T01:03:15;59.87;;;31.30;;
46266;SDS011;31998;48.798;15.066;2024-03-08T01:05:40;57.70;;;32.67;;
46266;SDS011;31998;48.798;15.066;2024-03-08T01:08:05;52.53;;;29.77;;
46266;SDS011;31998;48.798;15.066;2024-03-08T01:10:31;55.20;;;30.53;;
46266;SDS011;31998;48.798;15.066;2024-03-08T01:12:56;53.97;;;30.50;;
46266;SDS011;31998;48.798;15.066;2024-03-08T01:15:22;53.80;;;30.40;;
46266;SDS011;31998;48.798;15.066;2024-03-08T01:17:47;55.70;;;28.57;;
46266;SDS011;31998;48.798;15.066;2024-03-08T01:20:12;51.83;;;28.17;;
46266;SDS011;31998;48.798;15.066;2024-03-08T01:22:38;52.27;;;30.47;;
46266;SDS011;31998;48.798;15.066;2024-03-08T01:25:03;50.50;;;29.63;;
46266;SDS011;31998;48.798;15.066;2024-03-08T01:27:30;45.90;;;27.50;;
46266;SDS011;31998;48.798;15.066;2024-03-08T01:29:55;51.13;;;27.67;;
46266;SDS011;31998;48.798;15.066;2024-03-08T01:32:20;42.77;;;26.03;;
46266;SDS011;31998;48.798;15.066;2024-03-08T01:34:48;42.90;;;25.47;;
46266;SDS011;31998;48.798;15.066;2024-03-08T01:37:13;52.73;;;27.10;;
46266;SDS011;31998;48.798;15.066;2024-03-08T01:39:39;53.00;;;29.07;;
46266;SDS011;31998;48.798;15.066;2024-03-08T01:42:04;45.70;;;26.93;;
46266;SDS011;31998;48.798;15.066;2024-03-08T01:44:30;47.73;;;27.30;;
46266;SDS011;31998;48.798;15.066;2024-03-08T01:46:56;48.50;;;27.13;;
46266;SDS011;31998;48.798;15.066;2024-03-08T01:49:21;48.97;;;27.83;;
46266;SDS011;31998;48.798;15.066;2024-03-08T01:51:48;45.13;;;25.30;;
46266;SDS011;31998;48.798;15.066;2024-03-08T01:54:14;42.53;;;24.67;;
46266;SDS011;31998;48.798;15.066;2024-03-08T01:56:40;42.23;;;25.13;;
46266;SDS011;31998;48.798;15.066;2024-03-08T01:59:05;47.67;;;28.13;;
46266;SDS011;31998;48.798;15.066;2024-03-08T02:01:32;49.10;;;26.10;;
46266;SDS011;31998;48.798;15.066;2024-03-08T02:03:58;40.97;;;24.80;;
46266;SDS011;31998;48.798;15.066;2024-03-08T02:06:23;42.73;;;23.70;;
46266;SDS011;31998;48.798;15.066;2024-03-08T02:08:49;39.47;;;24.17;;
46266;SDS011;31998;48.798;15.066;2024-03-08T02:11:14;38.03;;;21.80;;
46266;SDS011;31998;48.798;15.066;2024-03-08T02:13:40;35.03;;;22.80;;
46266;SDS011;31998;48.798;15.066;2024-03-08T02:16:05;33.73;;;20.43;;
46266;SDS011;31998;48.798;15.066;2024-03-08T02:18:33;31.77;;;19.00;;
46266;SDS011;31998;48.798;15.066;2024-03-08T02:20:59;41.40;;;21.90;;
46266;SDS011;31998;48.798;15.066;2024-03-08T02:23:25;31.23;;;20.83;;
46266;SDS011;31998;48.798;15.066;2024-03-08T02:25:51;34.03;;;21.00;;
46266;SDS011;31998;48.798;15.066;2024-03-08T02:28:16;34.27;;;20.30;;
46266;SDS011;31998;48.798;15.066;2024-03-08T02:30:45;33.00;;;20.40;;
46266;SDS011;31998;48.798;15.066;2024-03-08T02:33:12;35.00;;;19.40;;
46266;SDS011;31998;48.798;15.066;2024-03-08T02:35:38;39.10;;;22.17;;
46266;SDS011;31998;48.798;15.066;2024-03-08T02:38:03;39.70;;;23.10;;
46266;SDS011;31998;48.798;15.066;2024-03-08T02:40:29;47.80;;;22.63;;
46266;SDS011;31998;48.798;15.066;2024-03-08T02:42:54;37.97;;;23.30;;
46266;SDS011;31998;48.798;15.066;2024-03-08T02:45:19;37.20;;;21.63;;
46266;SDS011;31998;48.798;15.066;2024-03-08T02:47:45;40.20;;;22.70;;
46266;SDS011;31998;48.798;15.066;2024-03-08T02:50:11;42.80;;;21.87;;
46266;SDS011;31998;48.798;15.066;2024-03-08T02:52:36;36.27;;;22.87;;
46266;SDS011;31998;48.798;15.066;2024-03-08T02:55:02;39.30;;;22.10;;
46266;SDS011;31998;48.798;15.066;2024-03-08T02:57:27;40.20;;;21.90;;
46266;SDS011;31998;48.798;15.066;2024-03-08T02:59:55;33.80;;;20.43;;
46266;SDS011;31998;48.798;15.066;2024-03-08T03:02:20;35.83;;;22.03;;
46266;SDS011;31998;48.798;15.066;2024-03-08T03:04:48;38.63;;;22.70;;
46266;SDS011;31998;48.798;15.066;2024-03-08T03:07:13;35.90;;;21.77;;
46266;SDS011;31998;48.798;15.066;2024-03-08T03:09:38;36.57;;;22.60;;
46266;SDS011;31998;48.798;15.066;2024-03-08T03:12:04;38.83;;;21.93;;
46266;SDS011;31998;48.798;15.066;2024-03-08T03:14:29;34.00;;;21.03;;
46266;SDS011;31998;48.798;15.066;2024-03-08T03:16:54;36.90;;;21.83;;
46266;SDS011;31998;48.798;15.066;2024-03-08T03:19:20;36.87;;;22.77;;
46266;SDS011;31998;48.798;15.066;2024-03-08T03:21:45;40.33;;;22.13;;
46266;SDS011;31998;48.798;15.066;2024-03-08T03:24:11;37.07;;;23.93;;
46266;SDS011;31998;48.798;15.066;2024-03-08T03:26:37;39.27;;;21.73;;
46266;SDS011;31998;48.798;15.066;2024-03-08T03:29:04;40.40;;;22.87;;
46266;SDS011;31998;48.798;15.066;2024-03-08T03:31:31;40.83;;;23.50;;
46266;SDS011;31998;48.798;15.066;2024-03-08T03:33:56;37.17;;;23.10;;
46266;SDS011;31998;48.798;15.066;2024-03-08T03:36:26;41.30;;;23.90;;
46266;SDS011;31998;48.798;15.066;2024-03-08T03:38:53;44.77;;;24.00;;
46266;SDS011;31998;48.798;15.066;2024-03-08T03:41:29;45.30;;;23.30;;
46266;SDS011;31998;48.798;15.066;2024-03-08T03:43:54;37.83;;;21.40;;
46266;SDS011;31998;48.798;15.066;2024-03-08T03:46:19;33.20;;;20.67;;
46266;SDS011;31998;48.798;15.066;2024-03-08T03:48:45;40.93;;;23.30;;
46266;SDS011;31998;48.798;15.066;2024-03-08T03:51:10;36.57;;;22.10;;
46266;SDS011;31998;48.798;15.066;2024-03-08T03:53:35;36.97;;;22.90;;
46266;SDS011;31998;48.798;15.066;2024-03-08T03:56:00;43.83;;;23.73;;
46266;SDS011;31998;48.798;15.066;2024-03-08T03:58:25;34.37;;;21.17;;
46266;SDS011;31998;48.798;15.066;2024-03-08T04:00:51;35.70;;;22.47;;
46266;SDS011;31998;48.798;15.066;2024-03-08T04:03:17;36.40;;;21.70;;
46266;SDS011;31998;48.798;15.066;2024-03-08T04:05:42;46.33;;;23.13;;
46266;SDS011;31998;48.798;15.066;2024-03-08T04:08:07;37.47;;;22.03;;
46266;SDS011;31998;48.798;15.066;2024-03-08T04:10:32;43.43;;;22.17;;
46266;SDS011;31998;48.798;15.066;2024-03-08T04:12:58;43.33;;;23.70;;
46266;SDS011;31998;48.798;15.066;2024-03-08T04:15:23;44.50;;;23.07;;
46266;SDS011;31998;48.798;15.066;2024-03-08T04:17:48;39.10;;;23.73;;
46266;SDS011;31998;48.798;15.066;2024-03-08T04:20:13;34.17;;;20.63;;
46266;SDS011;31998;48.798;15.066;2024-03-08T04:22:39;43.30;;;23.37;;
46266;SDS011;31998;48.798;15.066;2024-03-08T04:25:05;42.60;;;22.80;;
46266;SDS011;31998;48.798;15.066;2024-03-08T04:27:31;39.00;;;21.70;;
46266;SDS011;31998;48.798;15.066;2024-03-08T04:29:57;37.50;;;21.90;;
46266;SDS011;31998;48.798;15.066;2024-03-08T04:32:22;38.70;;;23.50;;
46266;SDS011;31998;48.798;15.066;2024-03-08T04:34:48;39.93;;;23.93;;
46266;SDS011;31998;48.798;15.066;2024-03-08T04:37:14;42.60;;;22.93;;
46266;SDS011;31998;48.798;15.066;2024-03-08T04:39:39;40.60;;;22.40;;
46266;SDS011;31998;48.798;15.066;2024-03-08T04:42:05;39.17;;;22.43;;
46266;SDS011;31998;48.798;15.066;2024-03-08T04:44:31;41.73;;;24.10;;
46266;SDS011;31998;48.798;15.066;2024-03-08T04:46:58;42.67;;;21.83;;
46266;SDS011;31998;48.798;15.066;2024-03-08T04:49:23;33.97;;;22.70;;
46266;SDS011;31998;48.798;15.066;2024-03-08T04:51:49;49.33;;;24.30;;
46266;SDS011;31998;48.798;15.066;2024-03-08T04:54:14;38.93;;;22.43;;
46266;SDS011;31998;48.798;15.066;2024-03-08T04:56:39;39.03;;;22.20;;
46266;SDS011;31998;48.798;15.066;2024-03-08T04:59:04;42.50;;;22.90;;
46266;SDS011;31998;48.798;15.066;2024-03-08T05:01:33;42.30;;;23.20;;
46266;SDS011;31998;48.798;15.066;2024-03-08T05:03:58;38.80;;;24.20;;
46266;SDS011;31998;48.798;15.066;2024-03-08T05:06:24;44.17;;;23.80;;
46266;SDS011;31998;48.798;15.066;2024-03-08T05:08:49;43.57;;;25.90;;
46266;SDS011;31998;48.798;15.066;2024-03-08T05:11:14;47.67;;;22.63;;
46266;SDS011;31998;48.798;15.066;2024-03-08T05:13:40;42.17;;;24.97;;
46266;SDS011;31998;48.798;15.066;2024-03-08T05:16:05;43.00;;;23.00;;
46266;SDS011;31998;48.798;15.066;2024-03-08T05:18:32;44.23;;;24.43;;
46266;SDS011;31998;48.798;15.066;2024-03-08T05:20:58;41.67;;;24.17;;
46266;SDS011;31998;48.798;15.066;2024-03-08T05:23:23;35.70;;;22.47;;
46266;SDS011;31998;48.798;15.066;2024-03-08T05:25:48;41.53;;;22.60;;
46266;SDS011;31998;48.798;15.066;2024-03-08T05:28:13;40.43;;;22.67;;
46266;SDS011;31998;48.798;15.066;2024-03-08T05:30:39;35.93;;;21.80;;
46266;SDS011;31998;48.798;15.066;2024-03-08T05:33:04;36.97;;;21.57;;
46266;SDS011;31998;48.798;15.066;2024-03-08T05:35:29;39.63;;;20.70;;
46266;SDS011;31998;48.798;15.066;2024-03-08T05:37:55;34.07;;;20.90;;
46266;SDS011;31998;48.798;15.066;2024-03-08T05:40:20;42.70;;;22.00;;
46266;SDS011;31998;48.798;15.066;2024-03-08T05:42:46;36.07;;;22.10;;
46266;SDS011;31998;48.798;15.066;2024-03-08T05:45:11;36.63;;;22.50;;
46266;SDS011;31998;48.798;15.066;2024-03-08T05:47:36;43.10;;;23.00;;
46266;SDS011;31998;48.798;15.066;2024-03-08T05:50:04;40.90;;;22.93;;
46266;SDS011;31998;48.798;15.066;2024-03-08T05:52:29;36.27;;;21.83;;
46266;SDS011;31998;48.798;15.066;2024-03-08T05:54:54;44.10;;;23.37;;
46266;SDS011;31998;48.798;15.066;2024-03-08T05:57:19;37.37;;;22.87;;
46266;SDS011;31998;48.798;15.066;2024-03-08T05:59:45;40.57;;;21.27;;
46266;SDS011;31998;48.798;15.066;2024-03-08T06:02:10;39.37;;;22.50;;
46266;SDS011;31998;48.798;15.066;2024-03-08T06:04:36;42.40;;;22.83;;
46266;SDS011;31998;48.798;15.066;2024-03-08T06:07:01;37.07;;;22.57;;
46266;SDS011;31998;48.798;15.066;2024-03-08T06:09:28;38.90;;;23.53;;
46266;SDS011;31998;48.798;15.066;2024-03-08T06:11:53;46.17;;;24.00;;
46266;SDS011;31998;48.798;15.066;2024-03-08T06:14:19;41.43;;;23.13;;
46266;SDS011;31998;48.798;15.066;2024-03-08T06:16:47;38.93;;;22.40;;
46266;SDS011;31998;48.798;15.066;2024-03-08T06:19:15;41.00;;;22.37;;
46266;SDS011;31998;48.798;15.066;2024-03-08T06:21:40;43.03;;;24.70;;
46266;SDS011;31998;48.798;15.066;2024-03-08T06:24:06;45.57;;;25.00;;
46266;SDS011;31998;48.798;15.066;2024-03-08T06:26:31;41.43;;;24.63;;
46266;SDS011;31998;48.798;15.066;2024-03-08T06:28:57;44.20;;;23.33;;
46266;SDS011;31998;48.798;15.066;2024-03-08T06:31:22;42.80;;;23.67;;
46266;SDS011;31998;48.798;15.066;2024-03-08T06:33:47;46.83;;;24.60;;
46266;SDS011;31998;48.798;15.066;2024-03-08T06:36:16;42.07;;;24.77;;
46266;SDS011;31998;48.798;15.066;2024-03-08T06:38:43;41.87;;;25.40;;
46266;SDS011;31998;48.798;15.066;2024-03-08T06:41:11;46.57;;;26.30;;
46266;SDS011;31998;48.798;15.066;2024-03-08T06:43:40;43.10;;;25.90;;
46266;SDS011;31998;48.798;15.066;2024-03-08T06:46:05;42.93;;;23.93;;
46266;SDS011;31998;48.798;15.066;2024-03-08T06:48:30;45.93;;;24.60;;
46266;SDS011;31998;48.798;15.066;2024-03-08T06:50:57;40.70;;;23.30;;
46266;SDS011;31998;48.798;15.066;2024-03-08T06:53:22;44.50;;;24.73;;
46266;SDS011;31998;48.798;15.066;2024-03-08T06:55:47;41.07;;;23.17;;
46266;SDS011;31998;48.798;15.066;2024-03-08T06:58:13;40.30;;;23.80;;
46266;SDS011;31998;48.798;15.066;2024-03-08T07:00:38;38.07;;;23.77;;
46266;SDS011;31998;48.798;15.066;2024-03-08T07:03:06;48.57;;;26.67;;
46266;SDS011;31998;48.798;15.066;2024-03-08T07:05:32;44.33;;;25.03;;
46266;SDS011;31998;48.798;15.066;2024-03-08T07:07:57;45.70;;;25.00;;
46266;SDS011;31998;48.798;15.066;2024-03-08T07:10:23;45.23;;;26.27;;
46266;SDS011;31998;48.798;15.066;2024-03-08T07:12:51;50.00;;;26.73;;
46266;SDS011;31998;48.798;15.066;2024-03-08T07:15:18;37.60;;;23.30;;
46266;SDS011;31998;48.798;15.066;2024-03-08T07:17:44;50.17;;;25.77;;
46266;SDS011;31998;48.798;15.066;2024-03-08T07:20:10;53.40;;;26.03;;
46266;SDS011;31998;48.798;15.066;2024-03-08T07:22:37;48.63;;;24.00;;
46266;SDS011;31998;48.798;15.066;2024-03-08T07:25:04;42.53;;;23.93;;
46266;SDS011;31998;48.798;15.066;2024-03-08T07:27:35;47.37;;;25.50;;
46266;SDS011;31998;48.798;15.066;2024-03-08T07:30:01;36.53;;;22.80;;
46266;SDS011;31998;48.798;15.066;2024-03-08T07:32:27;45.80;;;23.60;;
46266;SDS011;31998;48.798;15.066;2024-03-08T07:34:54;41.53;;;24.60;;
46266;SDS011;31998;48.798;15.066;2024-03-08T07:37:20;39.07;;;24.20;;
46266;SDS011;31998;48.798;15.066;2024-03-08T07:39:46;34.33;;;22.57;;
46266;SDS011;31998;48.798;15.066;2024-03-08T07:42:11;41.67;;;23.70;;
46266;SDS011;31998;48.798;15.066;2024-03-08T07:44:37;44.30;;;24.13;;
46266;SDS011;31998;48.798;15.066;2024-03-08T07:47:03;36.20;;;22.70;;
46266;SDS011;31998;48.798;15.066;2024-03-08T07:49:28;41.97;;;26.50;;
46266;SDS011;31998;48.798;15.066;2024-03-08T07:51:54;46.50;;;25.50;;
46266;SDS011;31998;48.798;15.066;2024-03-08T07:54:19;48.00;;;25.20;;
46266;SDS011;31998;48.798;15.066;2024-03-08T07:56:45;43.37;;;25.07;;
46266;SDS011;31998;48.798;15.066;2024-03-08T07:59:10;47.87;;;27.27;;
46266;SDS011;31998;48.798;15.066;2024-03-08T08:01:37;40.27;;;25.70;;
46266;SDS011;31998;48.798;15.066;2024-03-08T08:04:02;46.63;;;26.30;;
46266;SDS011;31998;48.798;15.066;2024-03-08T08:06:27;46.37;;;26.27;;
46266;SDS011;31998;48.798;15.066;2024-03-08T08:08:54;53.67;;;29.67;;
46266;SDS011;31998;48.798;15.066;2024-03-08T08:11:20;44.33;;;25.67;;
46266;SDS011;31998;48.798;15.066;2024-03-08T08:13:45;36.07;;;23.67;;
46266;SDS011;31998;48.798;15.066;2024-03-08T08:16:10;42.30;;;24.10;;
46266;SDS011;31998;48.798;15.066;2024-03-08T08:18:38;42.03;;;23.23;;
46266;SDS011;31998;48.798;15.066;2024-03-08T08:21:03;37.43;;;23.50;;
46266;SDS011;31998;48.798;15.066;2024-03-08T08:23:31;40.90;;;24.43;;
46266;SDS011;31998;48.798;15.066;2024-03-08T08:25:56;41.93;;;24.80;;
46266;SDS011;31998;48.798;15.066;2024-03-08T08:28:21;41.80;;;23.77;;
46266;SDS011;31998;48.798;15.066;2024-03-08T08:30:47;46.40;;;25.27;;
46266;SDS011;31998;48.798;15.066;2024-03-08T08:33:13;46.80;;;27.47;;
46266;SDS011;31998;48.798;15.066;2024-03-08T08:35:39;44.10;;;24.90;;
46266;SDS011;31998;48.798;15.066;2024-03-08T08:38:04;44.40;;;25.57;;
46266;SDS011;31998;48.798;15.066;2024-03-08T08:40:30;43.10;;;25.13;;
46266;SDS011;31998;48.798;15.066;2024-03-08T08:42:58;41.27;;;23.60;;
46266;SDS011;31998;48.798;15.066;2024-03-08T08:45:23;39.40;;;26.23;;
46266;SDS011;31998;48.798;15.066;2024-03-08T08:47:48;43.20;;;26.43;;
46266;SDS011;31998;48.798;15.066;2024-03-08T08:50:14;47.10;;;26.47;;
46266;SDS011;31998;48.798;15.066;2024-03-08T08:52:41;40.73;;;26.30;;
46266;SDS011;31998;48.798;15.066;2024-03-08T08:55:08;36.20;;;23.17;;
46266;SDS011;31998;48.798;15.066;2024-03-08T08:57:34;49.93;;;27.10;;
46266;SDS011;31998;48.798;15.066;2024-03-08T09:00:00;43.33;;;26.23;;
46266;SDS011;31998;48.798;15.066;2024-03-08T09:02:25;51.53;;;28.13;;
46266;SDS011;31998;48.798;15.066;2024-03-08T09:04:51;42.80;;;25.50;;
46266;SDS011;31998;48.798;15.066;2024-03-08T09:07:16;56.10;;;27.10;;
46266;SDS011;31998;48.798;15.066;2024-03-08T09:09:43;43.87;;;25.80;;
46266;SDS011;31998;48.798;15.066;2024-03-08T09:12:09;49.20;;;27.00;;
46266;SDS011;31998;48.798;15.066;2024-03-08T09:14:38;42.87;;;25.97;;
46266;SDS011;31998;48.798;15.066;2024-03-08T09:17:03;44.27;;;26.67;;
46266;SDS011;31998;48.798;15.066;2024-03-08T09:19:29;39.97;;;25.60;;
46266;SDS011;31998;48.798;15.066;2024-03-08T09:21:54;47.93;;;26.50;;
46266;SDS011;31998;48.798;15.066;2024-03-08T09:24:19;47.20;;;25.93;;
46266;SDS011;31998;48.798;15.066;2024-03-08T09:26:45;42.53;;;26.70;;
46266;SDS011;31998;48.798;15.066;2024-03-08T09:29:11;40.10;;;24.97;;
46266;SDS011;31998;48.798;15.066;2024-03-08T09:31:36;38.80;;;24.60;;
46266;SDS011;31998;48.798;15.066;2024-03-08T09:34:03;45.07;;;27.27;;
46266;SDS011;31998;48.798;15.066;2024-03-08T09:36:28;45.67;;;26.53;;
46266;SDS011;31998;48.798;15.066;2024-03-08T09:38:53;49.03;;;27.90;;
46266;SDS011;31998;48.798;15.066;2024-03-08T09:41:18;47.90;;;27.43;;
46266;SDS011;31998;48.798;15.066;2024-03-08T09:43:44;45.20;;;26.60;;
46266;SDS011;31998;48.798;15.066;2024-03-08T09:46:10;48.17;;;27.80;;
46266;SDS011;31998;48.798;15.066;2024-03-08T09:48:36;61.07;;;28.80;;
46266;SDS011;31998;48.798;15.066;2024-03-08T09:51:02;44.60;;;27.30;;
46266;SDS011;31998;48.798;15.066;2024-03-08T09:53:28;47.93;;;26.70;;
46266;SDS011;31998;48.798;15.066;2024-03-08T09:55:53;45.77;;;26.03;;
46266;SDS011;31998;48.798;15.066;2024-03-08T09:58:18;43.70;;;26.67;;
46266;SDS011;31998;48.798;15.066;2024-03-08T10:00:59;41.63;;;25.50;;
46266;SDS011;31998;48.798;15.066;2024-03-08T10:03:29;54.80;;;27.77;;
46266;SDS011;31998;48.798;15.066;2024-03-08T10:05:56;48.30;;;26.83;;
46266;SDS011;31998;48.798;15.066;2024-03-08T10:08:25;47.53;;;26.00;;
46266;SDS011;31998;48.798;15.066;2024-03-08T10:10:50;47.10;;;26.70;;
46266;SDS011;31998;48.798;15.066;2024-03-08T10:13:16;56.70;;;30.17;;
46266;SDS011;31998;48.798;15.066;2024-03-08T10:15:43;53.60;;;29.43;;
46266;SDS011;31998;48.798;15.066;2024-03-08T10:18:09;50.97;;;29.93;;
46266;SDS011;31998;48.798;15.066;2024-03-08T10:20:35;46.73;;;26.37;;
46266;SDS011;31998;48.798;15.066;2024-03-08T10:23:01;42.03;;;25.07;;
46266;SDS011;31998;48.798;15.066;2024-03-08T10:25:28;46.10;;;27.73;;
46266;SDS011;31998;48.798;15.066;2024-03-08T10:27:55;46.53;;;25.97;;
46266;SDS011;31998;48.798;15.066;2024-03-08T10:30:20;47.37;;;28.33;;
46266;SDS011;31998;48.798;15.066;2024-03-08T10:32:47;41.83;;;25.73;;
46266;SDS011;31998;48.798;15.066;2024-03-08T10:35:12;49.43;;;27.30;;
46266;SDS011;31998;48.798;15.066;2024-03-08T10:37:44;50.60;;;26.77;;
46266;SDS011;31998;48.798;15.066;2024-03-08T10:40:11;46.50;;;28.07;;
46266;SDS011;31998;48.798;15.066;2024-03-08T10:42:41;45.10;;;25.60;;
46266;SDS011;31998;48.798;15.066;2024-03-08T10:48:04;49.03;;;26.73;;
46266;SDS011;31998;48.798;15.066;2024-03-08T10:50:29;46.90;;;24.80;;
46266;SDS011;31998;48.798;15.066;2024-03-08T10:52:55;37.50;;;22.60;;
46266;SDS011;31998;48.798;15.066;2024-03-08T10:55:21;31.13;;;19.80;;
46266;SDS011;31998;48.798;15.066;2024-03-08T10:57:48;31.37;;;19.03;;
46266;SDS011;31998;48.798;15.066;2024-03-08T11:00:13;41.17;;;19.20;;
46266;SDS011;31998;48.798;15.066;2024-03-08T11:02:39;35.17;;;20.93;;
46266;SDS011;31998;48.798;15.066;2024-03-08T11:05:11;35.83;;;20.37;;
46266;SDS011;31998;48.798;15.066;2024-03-08T11:07:46;36.27;;;20.40;;
46266;SDS011;31998;48.798;15.066;2024-03-08T11:10:19;32.00;;;20.20;;
46266;SDS011;31998;48.798;15.066;2024-03-08T11:12:44;32.90;;;21.10;;
46266;SDS011;31998;48.798;15.066;2024-03-08T11:15:11;39.87;;;21.17;;
46266;SDS011;31998;48.798;15.066;2024-03-08T11:20:15;36.63;;;22.93;;
46266;SDS011;31998;48.798;15.066;2024-03-08T11:22:42;39.50;;;22.57;;
46266;SDS011;31998;48.798;15.066;2024-03-08T11:25:30;39.80;;;24.17;;
46266;SDS011;31998;48.798;15.066;2024-03-08T11:28:08;43.10;;;24.27;;
46266;SDS011;31998;48.798;15.066;2024-03-08T11:30:33;49.20;;;26.93;;
46266;SDS011;31998;48.798;15.066;2024-03-08T11:33:00;46.50;;;26.97;;
46266;SDS011;31998;48.798;15.066;2024-03-08T11:35:26;48.97;;;27.10;;
46266;SDS011;31998;48.798;15.066;2024-03-08T11:37:57;51.97;;;27.97;;
46266;SDS011;31998;48.798;15.066;2024-03-08T11:40:23;45.23;;;25.37;;
46266;SDS011;31998;48.798;15.066;2024-03-08T11:42:49;47.37;;;26.20;;
46266;SDS011;31998;48.798;15.066;2024-03-08T11:45:15;44.07;;;24.43;;
46266;SDS011;31998;48.798;15.066;2024-03-08T11:47:42;37.97;;;23.73;;
46266;SDS011;31998;48.798;15.066;2024-03-08T11:50:07;37.93;;;22.23;;
46266;SDS011;31998;48.798;15.066;2024-03-08T11:52:36;37.73;;;21.97;;
46266;SDS011;31998;48.798;15.066;2024-03-08T11:55:02;40.27;;;22.53;;
46266;SDS011;31998;48.798;15.066;2024-03-08T11:57:28;31.60;;;20.63;;
46266;SDS011;31998;48.798;15.066;2024-03-08T11:59:53;31.20;;;20.60;;
46266;SDS011;31998;48.798;15.066;2024-03-08T12:02:19;31.17;;;20.13;;
46266;SDS011;31998;48.798;15.066;2024-03-08T12:04:45;29.40;;;19.60;;
46266;SDS011;31998;48.798;15.066;2024-03-08T12:07:11;29.37;;;19.47;;
46266;SDS011;31998;48.798;15.066;2024-03-08T12:09:38;27.73;;;19.37;;
46266;SDS011;31998;48.798;15.066;2024-03-08T12:12:03;29.80;;;18.73;;
46266;SDS011;31998;48.798;15.066;2024-03-08T12:14:29;31.67;;;18.43;;
46266;SDS011;31998;48.798;15.066;2024-03-08T12:16:55;32.80;;;19.83;;
46266;SDS011;31998;48.798;15.066;2024-03-08T12:19:20;28.20;;;19.00;;
46266;SDS011;31998;48.798;15.066;2024-03-08T12:21:45;27.20;;;19.23;;
46266;SDS011;31998;48.798;15.066;2024-03-08T12:24:14;30.37;;;20.20;;
46266;SDS011;31998;48.798;15.066;2024-03-08T12:26:41;31.23;;;20.30;;
46266;SDS011;31998;48.798;15.066;2024-03-08T12:29:16;29.00;;;19.00;;
46266;SDS011;31998;48.798;15.066;2024-03-08T12:31:43;24.97;;;16.60;;
46266;SDS011;31998;48.798;15.066;2024-03-08T12:34:08;23.37;;;17.30;;
46266;SDS011;31998;48.798;15.066;2024-03-08T12:36:35;27.50;;;16.30;;
46266;SDS011;31998;48.798;15.066;2024-03-08T12:39:01;24.43;;;17.10;;
46266;SDS011;31998;48.798;15.066;2024-03-08T12:41:28;21.63;;;15.63;;
46266;SDS011;31998;48.798;15.066;2024-03-08T12:43:54;29.60;;;17.93;;
46266;SDS011;31998;48.798;15.066;2024-03-08T12:46:20;23.77;;;16.47;;
46266;SDS011;31998;48.798;15.066;2024-03-08T12:48:46;23.43;;;15.90;;
46266;SDS011;31998;48.798;15.066;2024-03-08T12:51:14;28.53;;;16.97;;
46266;SDS011;31998;48.798;15.066;2024-03-08T12:53:40;25.43;;;16.40;;
46266;SDS011;31998;48.798;15.066;2024-03-08T12:56:09;22.80;;;16.03;;
46266;SDS011;31998;48.798;15.066;2024-03-08T12:58:34;21.67;;;15.33;;
46266;SDS011;31998;48.798;15.066;2024-03-08T13:01:01;25.33;;;16.77;;
46266;SDS011;31998;48.798;15.066;2024-03-08T13:03:26;19.67;;;14.10;;
46266;SDS011;31998;48.798;15.066;2024-03-08T13:05:53;25.27;;;15.10;;
46266;SDS011;31998;48.798;15.066;2024-03-08T13:08:18;16.57;;;12.97;;
46266;SDS011;31998;48.798;15.066;2024-03-08T13:10:44;20.77;;;13.97;;
46266;SDS011;31998;48.798;15.066;2024-03-08T13:13:09;18.37;;;13.17;;
46266;SDS011;31998;48.798;15.066;2024-03-08T13:15:35;20.80;;;12.17;;
46266;SDS011;31998;48.798;15.066;2024-03-08T13:18:00;14.97;;;11.90;;
46266;SDS011;31998;48.798;15.066;2024-03-08T13:20:26;17.27;;;13.93;;
46266;SDS011;31998;48.798;15.066;2024-03-08T13:22:53;17.23;;;12.37;;
46266;SDS011;31998;48.798;15.066;2024-03-08T13:25:18;13.80;;;11.77;;
46266;SDS011;31998;48.798;15.066;2024-03-08T13:27:45;13.17;;;10.47;;
46266;SDS011;31998;48.798;15.066;2024-03-08T13:30:14;21.83;;;12.97;;
46266;SDS011;31998;48.798;15.066;2024-03-08T13:32:43;11.43;;;10.10;;
46266;SDS011;31998;48.798;15.066;2024-03-08T13:35:09;10.93;;;9.40;;
46266;SDS011;31998;48.798;15.066;2024-03-08T13:37:40;14.10;;;10.37;;
46266;SDS011;31998;48.798;15.066;2024-03-08T13:40:06;15.50;;;10.60;;
46266;SDS011;31998;48.798;15.066;2024-03-08T13:42:36;15.33;;;10.70;;
46266;SDS011;31998;48.798;15.066;2024-03-08T13:45:02;14.83;;;11.70;;
46266;SDS011;31998;48.798;15.066;2024-03-08T13:47:28;12.80;;;10.73;;
46266;SDS011;31998;48.798;15.066;2024-03-08T13:49:53;12.47;;;9.37;;
46266;SDS011;31998;48.798;15.066;2024-03-08T13:52:19;13.83;;;10.97;;
46266;SDS011;31998;48.798;15.066;2024-03-08T13:54:44;14.43;;;10.63;;
46266;SDS011;31998;48.798;15.066;2024-03-08T13:57:10;15.73;;;11.03;;
46266;SDS011;31998;48.798;15.066;2024-03-08T13:59:35;17.57;;;12.10;;
46266;SDS011;31998;48.798;15.066;2024-03-08T14:02:03;11.87;;;10.33;;
46266;SDS011;31998;48.798;15.066;2024-03-08T14:04:29;11.90;;;9.80;;
46266;SDS011;31998;48.798;15.066;2024-03-08T14:06:54;16.57;;;10.63;;